createdAt,value
2023-04-15T00:00:58.587Z,100816.19
2023-04-15T00:03:25.525Z,100812.75
2023-04-15T00:05:52.205Z,100821.84
2023-04-15T00:08:18.743Z,100813.44
2023-04-15T00:10:46.691Z,100817.03
2023-04-15T00:13:13.332Z,100823.34
2023-04-15T00:15:39.847Z,100816.34
2023-04-15T00:18:07.450Z,100812.06
2023-04-15T00:20:34.364Z,100813.88
2023-04-15T00:23:02.698Z,100820.22
2023-04-15T00:25:29.382Z,100817.72
2023-04-15T00:27:55.877Z,100802.72
2023-04-15T00:30:22.610Z,100810.56
2023-04-15T00:32:49.582Z,100818.28
2023-04-15T00:35:16.553Z,100812.88
2023-04-15T00:37:44.840Z,100816.06
2023-04-15T00:40:13.824Z,100817.84
2023-04-15T00:42:40.843Z,100812.50
2023-04-15T00:45:08.884Z,100809.31
2023-04-15T00:47:37.288Z,100816.34
2023-04-15T00:50:04.028Z,100810.25
2023-04-15T00:52:30.789Z,100819.09
2023-04-15T00:54:57.593Z,100814.97
2023-04-15T00:57:24.061Z,100812.50
2023-04-15T00:59:52.678Z,100817.72
2023-04-15T01:02:19.636Z,100816.06
2023-04-15T01:04:46.147Z,100817.97
2023-04-15T01:07:12.564Z,100818.66
2023-04-15T01:09:39.154Z,100826.81
2023-04-15T01:12:07.205Z,100821.28
2023-04-15T01:14:33.993Z,100827.06
2023-04-15T01:17:00.820Z,100823.63
2023-04-15T01:19:27.646Z,100826.50
2023-04-15T01:21:54.573Z,100826.50
2023-04-15T01:24:21.337Z,100830.09
2023-04-15T01:26:49.756Z,100832.84
2023-04-15T01:29:16.564Z,100824.31
2023-04-15T01:31:51.707Z,100829.53
2023-04-15T01:34:18.403Z,100825.69
2023-04-15T01:36:44.969Z,100813.56
2023-04-15T01:39:11.644Z,100820.72
2023-04-15T01:41:38.485Z,100822.63
2023-04-15T01:44:05.016Z,100828.72
2023-04-15T01:46:31.476Z,100821.94
2023-04-15T01:48:58.238Z,100817.25
2023-04-15T01:51:24.918Z,100824.97
2023-04-15T01:53:52.235Z,100827.88
2023-04-15T01:56:18.994Z,100825.78
2023-04-15T01:58:45.577Z,100820.28
2023-04-15T02:01:13.161Z,100826.19
2023-04-15T02:03:39.856Z,100827.16
2023-04-15T02:06:06.320Z,100828.25
2023-04-15T02:08:32.731Z,100826.88
2023-04-15T02:10:59.175Z,100828.53
2023-04-15T02:13:25.704Z,100829.75
2023-04-15T02:15:52.730Z,100830.47
2023-04-15T02:18:19.161Z,100819.28
2023-04-15T02:20:46.863Z,100835.13
2023-04-15T02:23:13.451Z,100834.28
2023-04-15T02:25:39.978Z,100838.13
2023-04-15T02:28:06.700Z,100838.81
2023-04-15T02:30:33.951Z,100841.44
2023-04-15T02:33:01.194Z,100844.31
2023-04-15T02:35:27.849Z,100846.25
2023-04-15T02:37:54.457Z,100847.88
2023-04-15T02:40:21.734Z,100853.41
2023-04-15T02:42:48.196Z,100858.75
2023-04-15T02:45:14.640Z,100859.00
2023-04-15T02:47:41.730Z,100855.44
2023-04-15T02:50:09.849Z,100862.31
2023-04-15T02:52:36.277Z,100858.47
2023-04-15T02:55:04.457Z,100857.00
2023-04-15T02:57:30.988Z,100859.78
2023-04-15T02:59:57.466Z,100862.25
2023-04-15T03:02:24.597Z,100863.22
2023-04-15T03:04:51.219Z,100864.84
2023-04-15T03:07:18.669Z,100863.13
2023-04-15T03:09:46.176Z,100866.78
2023-04-15T03:12:12.609Z,100874.06
2023-04-15T03:14:39.060Z,100863.47
2023-04-15T03:17:05.527Z,100871.47
2023-04-15T03:19:31.938Z,100872.97
2023-04-15T03:21:58.307Z,100874.06
2023-04-15T03:24:24.915Z,100873.22
2023-04-15T03:26:51.491Z,100880.94
2023-04-15T03:29:17.941Z,100877.50
2023-04-15T03:31:44.449Z,100875.25
2023-04-15T03:34:11.002Z,100882.81
2023-04-15T03:36:37.563Z,100886.41
2023-04-15T03:39:04.417Z,100888.31
2023-04-15T03:41:31.053Z,100893.66
2023-04-15T03:43:57.519Z,100891.56
2023-04-15T03:46:24.288Z,100889.66
2023-04-15T03:48:50.656Z,100889.78
2023-04-15T03:51:17.116Z,100892.50
2023-04-15T03:53:43.618Z,100888.94
2023-04-15T03:56:10.069Z,100894.41
2023-04-15T03:58:36.678Z,100892.19
2023-04-15T04:01:03.658Z,100896.47
2023-04-15T04:03:30.322Z,100908.69
2023-04-15T04:05:56.968Z,100902.78
2023-04-15T04:08:23.551Z,100905.50
2023-04-15T04:10:50.045Z,100911.69
2023-04-15T04:13:16.488Z,100905.78
2023-04-15T04:15:43.094Z,100913.34
2023-04-15T04:18:09.572Z,100917.75
2023-04-15T04:20:36.078Z,100922.28
2023-04-15T04:23:02.580Z,100926.78
2023-04-15T04:25:29.027Z,100926.78
2023-04-15T04:27:55.508Z,100936.16
2023-04-15T04:30:22.187Z,100936.03
2023-04-15T04:32:50.111Z,100945.78
2023-04-15T04:35:16.676Z,100942.34
2023-04-15T04:37:43.372Z,100938.19
2023-04-15T04:40:10.661Z,100943.28
2023-04-15T04:42:39.744Z,100947.69
2023-04-15T04:45:07.575Z,100943.53
2023-04-15T04:47:34.086Z,100952.34
2023-04-15T04:50:00.571Z,100954.38
2023-04-15T04:52:27.206Z,100959.47
2023-04-15T04:54:53.600Z,100970.03
2023-04-15T04:57:19.990Z,100971.13
2023-04-15T04:59:46.753Z,100969.47
2023-04-15T05:02:13.414Z,100979.09
2023-04-15T05:04:41.671Z,100978.50
2023-04-15T05:07:08.545Z,100985.63
2023-04-15T05:09:36.676Z,100991.81
2023-04-15T05:12:04.678Z,100983.13
2023-04-15T05:14:32.346Z,100985.03
2023-04-15T05:16:58.870Z,100993.56
2023-04-15T05:19:25.523Z,100997.75
2023-04-15T05:21:52.326Z,100999.28
2023-04-15T05:24:18.766Z,101002.72
2023-04-15T05:26:45.215Z,101008.50
2023-04-15T05:29:11.931Z,101008.13
2023-04-15T05:31:38.644Z,101019.66
2023-04-15T05:34:05.430Z,101016.47
2023-04-15T05:36:32.044Z,101015.53
2023-04-15T05:38:58.576Z,101020.06
2023-04-15T05:41:25.284Z,101023.47
2023-04-15T05:43:54.901Z,101023.94
2023-04-15T05:46:21.947Z,101027.72
2023-04-15T05:48:48.457Z,101035.91
2023-04-15T05:51:15.089Z,101035.38
2023-04-15T05:53:41.779Z,101034.06
2023-04-15T05:56:08.312Z,101034.19
2023-04-15T05:58:34.742Z,101039.03
2023-04-15T06:01:01.220Z,101036.59
2023-04-15T06:03:27.710Z,101043.97
2023-04-15T06:05:54.330Z,101049.75
2023-04-15T06:08:21.515Z,101057.00
2023-04-15T06:10:48.042Z,101065.28
2023-04-15T06:13:14.560Z,101066.31
2023-04-15T06:15:41.228Z,101076.00
2023-04-15T06:18:07.598Z,101075.50
2023-04-15T06:20:34.174Z,101085.44
2023-04-15T06:23:01.064Z,101079.84
2023-04-15T06:25:27.520Z,101088.25
2023-04-15T06:27:54.010Z,101089.66
2023-04-15T06:30:21.900Z,101099.03
2023-04-15T06:32:49.495Z,101091.06
2023-04-15T06:35:16.061Z,101095.06
2023-04-15T06:37:42.446Z,101094.38
2023-04-15T06:40:10.063Z,101105.13
2023-04-15T06:42:38.425Z,101107.22
2023-04-15T06:45:06.899Z,101111.41
2023-04-15T06:47:33.352Z,101118.03
2023-04-15T06:49:59.988Z,101126.44
2023-04-15T06:52:26.510Z,101133.22
2023-04-15T06:54:52.936Z,101129.78
2023-04-15T06:57:19.437Z,101131.97
2023-04-15T06:59:46.142Z,101137.91
2023-04-15T07:02:14.412Z,101151.00
2023-04-15T07:04:41.074Z,101145.31
2023-04-15T07:07:08.010Z,101152.34
2023-04-15T07:09:34.493Z,101146.47
2023-04-15T07:12:00.950Z,101156.69
2023-04-15T07:14:27.846Z,101161.66
2023-04-15T07:16:54.369Z,101165.53
2023-04-15T07:19:20.920Z,101160.88
2023-04-15T07:21:47.599Z,101161.75
2023-04-15T07:24:18.080Z,101172.22
2023-04-15T07:26:45.198Z,101176.09
2023-04-15T07:29:12.021Z,101174.31
2023-04-15T07:31:38.479Z,101180.56
2023-04-15T07:34:05.460Z,101187.19
2023-04-15T07:36:31.886Z,101185.28
2023-04-15T07:38:58.519Z,101188.19
2023-04-15T07:41:25.851Z,101197.88
2023-04-15T07:43:52.319Z,101197.47
2023-04-15T07:46:18.833Z,101195.28
2023-04-15T07:48:45.344Z,101198.06
2023-04-15T07:51:12.897Z,101202.63
2023-04-15T07:53:39.303Z,101209.72
2023-04-15T07:56:06.174Z,101197.88
2023-04-15T07:58:32.736Z,101211.13
2023-04-15T08:01:01.218Z,101208.94
2023-04-15T08:03:28.192Z,101214.03
2023-04-15T08:05:54.949Z,101223.44
2023-04-15T08:08:22.325Z,101222.22
2023-04-15T08:10:49.788Z,101222.34
2023-04-15T08:13:18.273Z,101228.97
2023-04-15T08:15:44.873Z,101226.22
2023-04-15T08:18:11.376Z,101222.44
2023-04-15T08:20:38.471Z,101228.25
2023-04-15T08:23:05.072Z,101231.28
2023-04-15T08:25:31.826Z,101228.13
2023-04-15T08:27:58.367Z,101218.41
2023-04-15T08:30:25.198Z,101225.16
2023-04-15T08:32:51.789Z,101230.16
2023-04-15T08:35:18.326Z,101231.22
2023-04-15T08:37:44.729Z,101229.41
2023-04-15T08:40:11.663Z,101239.59
2023-04-15T08:42:44.924Z,101253.50
2023-04-15T08:45:11.702Z,101254.91
2023-04-15T08:47:39.878Z,101252.16
2023-04-15T08:50:09.678Z,101264.03
2023-04-15T08:52:36.947Z,101254.78
2023-04-15T08:55:04.836Z,101260.69
2023-04-15T08:57:33.495Z,101259.13
2023-04-15T09:00:03.098Z,101267.84
2023-04-15T09:02:31.661Z,101259.22
2023-04-15T09:04:58.154Z,101279.44
2023-04-15T09:07:24.965Z,101276.09
2023-04-15T09:09:52.351Z,101277.31
2023-04-15T09:12:18.819Z,101279.88
2023-04-15T09:14:49.506Z,101280.94
2023-04-15T09:17:19.715Z,101280.66
2023-04-15T09:19:46.706Z,101284.88
2023-04-15T09:22:13.313Z,101288.09
2023-04-15T09:24:42.217Z,101295.94
2023-04-15T09:27:08.896Z,101296.19
2023-04-15T09:29:35.492Z,101297.09
2023-04-15T09:32:15.585Z,101305.44
2023-04-15T09:34:42.737Z,101307.00
2023-04-15T09:37:10.877Z,101297.84
2023-04-15T09:39:51.127Z,101299.19
2023-04-15T09:42:24.117Z,101301.88
2023-04-15T09:44:52.695Z,101299.81
2023-04-15T09:47:32.179Z,101311.91
2023-04-15T09:50:00.419Z,101308.31
2023-04-15T09:52:28.603Z,101311.84
2023-04-15T09:54:58.806Z,101316.66
2023-04-15T09:57:25.757Z,101321.63
2023-04-15T09:59:52.322Z,101321.63
2023-04-15T10:02:21.298Z,101317.88
2023-04-15T10:04:49.097Z,101318.78
2023-04-15T10:07:16.304Z,101317.56
2023-04-15T10:09:45.772Z,101327.19
2023-04-15T10:12:12.821Z,101320.28
2023-04-15T10:14:41.482Z,101336.63
2023-04-15T10:17:11.676Z,101326.94
2023-04-15T10:19:38.467Z,101333.53
2023-04-15T10:22:05.186Z,101329.22
2023-04-15T10:24:32.054Z,101336.50
2023-04-15T10:26:59.977Z,101341.75
2023-04-15T10:29:27.327Z,101344.59
2023-04-15T10:31:58.924Z,101348.59
2023-04-15T10:34:26.072Z,101338.81
2023-04-15T10:36:56.500Z,101346.41
2023-04-15T10:39:43.471Z,101355.00
2023-04-15T10:42:15.361Z,101354.66
2023-04-15T10:44:48.487Z,101358.97
2023-04-15T10:47:20.155Z,101349.38
2023-04-15T10:50:01.293Z,101356.63
2023-04-15T10:52:29.325Z,101353.50
2023-04-15T10:55:16.408Z,101348.81
2023-04-15T10:57:44.055Z,101356.47
2023-04-15T11:00:15.866Z,101363.34
2023-04-15T11:02:48.421Z,101358.19
2023-04-15T11:05:16.732Z,101354.00
2023-04-15T11:07:46.814Z,101361.69
2023-04-15T11:10:25.897Z,101357.22
2023-04-15T11:12:54.527Z,101366.03
2023-04-15T11:15:38.839Z,101358.09
2023-04-15T11:18:13.551Z,101350.88
2023-04-15T11:20:42.067Z,101361.22
2023-04-15T11:23:15.310Z,101359.00
2023-04-15T11:25:43.535Z,101370.59
2023-04-15T11:28:11.970Z,101367.63
2023-04-15T11:30:39.440Z,101366.66
2023-04-15T11:33:10.289Z,101370.66
2023-04-15T11:35:36.871Z,101363.78
2023-04-15T11:38:05.457Z,101368.72
2023-04-15T11:40:33.561Z,101375.16
2023-04-15T11:43:18.553Z,101376.59
2023-04-15T11:45:52.945Z,101372.44
2023-04-15T11:48:21.971Z,101371.38
2023-04-15T11:50:56.967Z,101379.91
2023-04-15T11:53:24.606Z,101376.88
2023-04-15T11:55:53.414Z,101394.44
2023-04-15T11:58:25.289Z,101386.78
2023-04-15T12:00:57.934Z,101381.63
2023-04-15T12:03:37.762Z,101386.47
2023-04-15T12:06:19.898Z,101390.63
2023-04-15T12:08:55.585Z,101402.13
2023-04-15T12:11:31.032Z,101395.72
2023-04-15T12:13:59.627Z,101408.56
2023-04-15T12:16:28.825Z,101408.19
2023-04-15T12:18:59.785Z,101403.88
2023-04-15T12:21:29.186Z,101406.22
2023-04-15T12:23:57.279Z,101409.97
2023-04-15T12:26:51.927Z,101409.72
2023-04-15T12:29:18.739Z,101416.97
2023-04-15T12:31:56.851Z,101422.94
2023-04-15T12:34:31.588Z,101428.34
2023-04-15T12:36:59.829Z,101417.44
2023-04-15T12:39:30.477Z,101426.31
2023-04-15T12:41:57.353Z,101434.09
2023-04-15T12:44:24.535Z,101442.06
2023-04-15T12:46:53.496Z,101438.41
2023-04-15T12:49:24.334Z,101436.78
2023-04-15T12:51:53.456Z,101451.84
2023-04-15T12:54:20.031Z,101444.22
2023-04-15T12:56:48.238Z,101444.38
2023-04-15T12:59:16.613Z,101438.91
2023-04-15T13:01:43.551Z,101448.16
2023-04-15T13:04:10.372Z,101443.03
2023-04-15T13:06:36.993Z,101462.06
2023-04-15T13:09:05.292Z,101462.63
2023-04-15T13:11:33.740Z,101468.19
2023-04-15T13:14:01.928Z,101483.97
2023-04-15T13:16:28.716Z,101463.41
2023-04-15T13:18:55.497Z,101468.16
2023-04-15T13:21:22.150Z,101482.16
2023-04-15T13:23:49.783Z,101464.31
2023-04-15T13:26:16.230Z,101474.75
2023-04-15T13:28:42.712Z,101483.44
2023-04-15T13:31:09.178Z,101481.81
2023-04-15T13:33:35.742Z,101479.22
2023-04-15T13:36:02.352Z,101482.66
2023-04-15T13:38:28.800Z,101483.44
2023-04-15T13:40:55.284Z,101485.88
2023-04-15T13:43:22.276Z,101490.00
2023-04-15T13:45:48.925Z,101487.03
2023-04-15T13:48:15.463Z,101479.94
2023-04-15T13:50:45.255Z,101499.75
2023-04-15T13:53:12.987Z,101500.97
2023-04-15T13:55:41.745Z,101502.50
2023-04-15T13:58:09.296Z,101514.94
2023-04-15T14:00:36.016Z,101510.66
2023-04-15T14:03:02.694Z,101521.47
2023-04-15T14:05:29.416Z,101515.38
2023-04-15T14:07:55.890Z,101532.28
2023-04-15T14:10:22.329Z,101538.72
2023-04-15T14:12:48.929Z,101546.66
2023-04-15T14:15:15.384Z,101547.63
2023-04-15T14:17:42.520Z,101538.22
2023-04-15T14:20:09.847Z,101554.13
2023-04-15T14:22:36.418Z,101557.59
2023-04-15T14:25:02.987Z,101576.56
2023-04-15T14:27:29.474Z,101572.50
2023-04-15T14:29:57.719Z,101577.97
2023-04-15T14:32:25.949Z,101583.69
2023-04-15T14:34:52.603Z,101581.34
2023-04-15T14:37:19.201Z,101583.84
2023-04-15T14:39:45.670Z,101592.53
2023-04-15T14:42:12.095Z,101590.97
2023-04-15T14:44:38.619Z,101597.91
2023-04-15T14:47:05.850Z,101601.88
2023-04-15T14:49:32.470Z,101608.59
2023-04-15T14:51:58.866Z,101608.75
2023-04-15T14:54:25.378Z,101618.88
2023-04-15T14:56:51.899Z,101622.34
2023-04-15T14:59:18.398Z,101619.84
2023-04-15T15:01:44.938Z,101623.97
2023-04-15T15:04:12.008Z,101628.28
2023-04-15T15:06:38.978Z,101625.13
2023-04-15T15:09:05.509Z,101629.94
2023-04-15T15:11:32.066Z,101632.81
2023-04-15T15:13:58.587Z,101633.84
2023-04-15T15:16:25.502Z,101640.63
2023-04-15T15:18:52.015Z,101641.91
2023-04-15T15:21:18.662Z,101651.22
2023-04-15T15:23:45.885Z,101645.84
2023-04-15T15:26:12.598Z,101652.44
2023-04-15T15:28:39.181Z,101658.34
2023-04-15T15:31:05.911Z,101654.34
2023-04-15T15:33:32.852Z,101656.13
2023-04-15T15:35:59.364Z,101661.13
2023-04-15T15:38:26.293Z,101664.03
2023-04-15T15:40:52.815Z,101665.56
2023-04-15T15:43:19.309Z,101663.94
2023-04-15T15:45:45.787Z,101674.56
2023-04-15T15:48:12.659Z,101667.38
2023-04-15T15:50:39.158Z,101665.53
2023-04-15T15:53:05.650Z,101677.19
2023-04-15T15:55:32.238Z,101684.97
2023-04-15T15:57:58.588Z,101682.75
2023-04-15T16:00:25.219Z,101689.31
2023-04-15T16:03:06.736Z,101685.19
2023-04-15T16:05:34.205Z,101682.69
2023-04-15T16:08:00.690Z,101687.84
2023-04-15T16:10:27.534Z,101692.53
2023-04-15T16:12:54.478Z,101694.75
2023-04-15T16:15:21.020Z,101698.75
2023-04-15T16:17:47.558Z,101698.06
2023-04-15T16:20:14.050Z,101701.69
2023-04-15T16:22:40.662Z,101701.97
2023-04-15T16:25:07.380Z,101705.84
2023-04-15T16:27:35.010Z,101711.66
2023-04-15T16:30:03.909Z,101728.16
2023-04-15T16:32:30.666Z,101723.72
2023-04-15T16:34:57.164Z,101734.78
2023-04-15T16:37:23.848Z,101728.38
2023-04-15T16:39:50.390Z,101731.03
2023-04-15T16:42:17.195Z,101737.94
2023-04-15T16:44:43.674Z,101742.94
2023-04-15T16:47:11.899Z,101752.41
2023-04-15T16:49:38.398Z,101754.72
2023-04-15T16:52:05.024Z,101751.66
2023-04-15T16:54:33.461Z,101755.81
2023-04-15T16:56:59.883Z,101761.34
2023-04-15T16:59:27.389Z,101761.25
2023-04-15T17:01:54.429Z,101765.81
2023-04-15T17:04:21.070Z,101764.66
2023-04-15T17:06:48.071Z,101761.56
2023-04-15T17:09:14.477Z,101772.69
2023-04-15T17:11:40.931Z,101774.06
2023-04-15T17:14:07.708Z,101777.91
2023-04-15T17:16:34.189Z,101780.66
2023-04-15T17:19:00.709Z,101790.25
2023-04-15T17:21:27.420Z,101786.38
2023-04-15T17:23:53.939Z,101783.59
2023-04-15T17:26:20.693Z,101782.66
2023-04-15T17:28:47.175Z,101785.41
2023-04-15T17:31:13.730Z,101789.13
2023-04-15T17:34:01.560Z,101780.28
2023-04-15T17:36:27.657Z,101785.81
2023-04-15T17:38:56.998Z,101793.19
2023-04-15T17:41:24.192Z,101791.91
2023-04-15T17:43:50.925Z,101796.91
2023-04-15T17:46:19.290Z,101802.28
2023-04-15T17:48:47.649Z,101809.81
2023-04-15T17:51:15.124Z,101816.00
2023-04-15T17:53:41.668Z,101807.88
2023-04-15T17:56:08.111Z,101820.66
2023-04-15T17:58:34.988Z,101823.50
2023-04-15T18:01:01.534Z,101824.47
2023-04-15T18:03:28.272Z,101832.47
2023-04-15T18:05:55.930Z,101827.31
2023-04-15T18:08:22.454Z,101834.31
2023-04-15T18:10:48.939Z,101843.69
2023-04-15T18:13:15.484Z,101842.84
2023-04-15T18:15:42.057Z,101846.09
2023-04-15T18:18:08.569Z,101855.75
2023-04-15T18:20:35.077Z,101846.44
2023-04-15T18:23:01.688Z,101856.47
2023-04-15T18:25:29.969Z,101864.56
2023-04-15T18:27:56.597Z,101866.25
2023-04-15T18:30:23.623Z,101864.56
2023-04-15T18:32:50.086Z,101865.53
2023-04-15T18:35:17.200Z,101869.69
2023-04-15T18:37:43.756Z,101877.69
2023-04-15T18:40:10.665Z,101881.13
2023-04-15T18:42:37.279Z,101885.94
2023-04-15T18:45:03.882Z,101886.28
2023-04-15T18:47:30.438Z,101897.25
2023-04-15T18:49:58.516Z,101896.78
2023-04-15T18:52:25.104Z,101894.88
2023-04-15T18:54:51.580Z,101901.88
2023-04-15T18:57:24.319Z,101894.81
2023-04-15T18:59:57.804Z,101906.72
2023-04-15T19:02:24.582Z,101904.38
2023-04-15T19:04:51.255Z,101905.31
2023-04-15T19:07:17.789Z,101896.13
2023-04-15T19:09:44.298Z,101910.31
2023-04-15T19:12:10.943Z,101912.81
2023-04-15T19:14:37.330Z,101916.78
2023-04-15T19:17:03.964Z,101915.75
2023-04-15T19:19:30.533Z,101920.38
2023-04-15T19:21:57.602Z,101915.97
2023-04-15T19:24:24.206Z,101921.69
2023-04-15T19:26:51.237Z,101930.50
2023-04-15T19:29:18.462Z,101921.44
2023-04-15T19:31:45.507Z,101922.75
2023-04-15T19:34:12.439Z,101924.06
2023-04-15T19:36:39.408Z,101936.13
2023-04-15T19:39:06.411Z,101931.22
2023-04-15T19:41:33.117Z,101940.06
2023-04-15T19:44:00.148Z,101938.75
2023-04-15T19:46:27.500Z,101943.34
2023-04-15T19:48:55.246Z,101949.34
2023-04-15T19:51:21.852Z,101943.22
2023-04-15T19:53:49.684Z,101942.63
2023-04-15T19:56:16.450Z,101959.91
2023-04-15T19:58:46.449Z,101960.00
2023-04-15T20:01:13.293Z,101953.13
2023-04-15T20:03:39.978Z,101957.28
2023-04-15T20:06:06.561Z,101952.31
2023-04-15T20:08:33.010Z,101946.97
2023-04-15T20:11:01.128Z,101949.59
2023-04-15T20:13:27.707Z,101956.13
2023-04-15T20:15:54.125Z,101953.50
2023-04-15T20:18:20.656Z,101955.59
2023-04-15T20:20:47.247Z,101956.31
2023-04-15T20:23:13.743Z,101950.72
2023-04-15T20:25:41.904Z,101948.09
2023-04-15T20:28:08.338Z,101963.22
2023-04-15T20:30:34.909Z,101962.50
2023-04-15T20:33:01.497Z,101962.72
2023-04-15T20:35:28.191Z,101969.38
2023-04-15T20:37:54.679Z,101967.13
2023-04-15T20:40:21.561Z,101964.50
2023-04-15T20:42:47.990Z,101959.72
2023-04-15T20:45:14.598Z,101959.09
2023-04-15T20:47:41.471Z,101958.50
2023-04-15T20:50:08.870Z,101960.41
2023-04-15T20:52:35.420Z,101961.56
2023-04-15T20:55:01.910Z,101964.88
2023-04-15T20:57:30.110Z,101966.31
2023-04-15T20:59:56.676Z,101969.91
2023-04-15T21:02:24.298Z,101965.13
2023-04-15T21:04:50.971Z,101968.56
2023-04-15T21:07:17.438Z,101959.47
2023-04-15T21:09:43.917Z,101969.84
2023-04-15T21:12:11.212Z,101966.28
2023-04-15T21:14:38.915Z,101971.53
2023-04-15T21:17:08.615Z,101978.34
2023-04-15T21:19:37.219Z,101968.41
2023-04-15T21:22:03.973Z,101974.34
2023-04-15T21:24:30.626Z,101978.25
2023-04-15T21:26:57.260Z,101972.19
2023-04-15T21:29:23.916Z,101988.38
2023-04-15T21:31:50.787Z,101985.28
2023-04-15T21:34:17.632Z,101986.22
2023-04-15T21:36:44.453Z,101987.19
2023-04-15T21:39:11.095Z,101994.69
2023-04-15T21:41:37.695Z,101989.88
2023-04-15T21:44:04.562Z,101995.69
2023-04-15T21:46:32.751Z,101998.09
2023-04-15T21:49:00.068Z,102003.13
2023-04-15T21:51:26.964Z,102005.41
2023-04-15T21:53:53.513Z,102007.91
2023-04-15T21:56:22.543Z,102002.16
2023-04-15T21:58:49.012Z,102004.91
2023-04-15T22:01:15.515Z,102019.78
2023-04-15T22:03:42.193Z,102016.44
2023-04-15T22:06:15.597Z,102026.66
2023-04-15T22:08:55.120Z,102013.94
2023-04-15T22:11:27.877Z,102012.03
2023-04-15T22:13:55.151Z,102025.53
2023-04-15T22:16:24.016Z,102030.09
2023-04-15T22:18:50.813Z,102026.75
2023-04-15T22:21:17.272Z,102032.94
2023-04-15T22:23:47.641Z,102027.00
2023-04-15T22:26:14.620Z,102028.38
2023-04-15T22:28:41.653Z,102022.31
2023-04-15T22:31:08.188Z,102022.91
2023-04-15T22:33:34.618Z,102032.00
2023-04-15T22:36:01.184Z,102028.44
2023-04-15T22:38:27.589Z,102034.75
2023-04-15T22:40:54.332Z,102034.50
2023-04-15T22:43:20.825Z,102036.28
2023-04-15T22:45:51.382Z,102038.31
2023-04-15T22:48:18.852Z,102037.78
2023-04-15T22:50:45.734Z,102036.13
2023-04-15T22:53:12.549Z,102037.69
2023-04-15T22:55:39.211Z,102040.41
2023-04-15T22:58:05.880Z,102045.78
2023-04-15T23:00:32.327Z,102046.25
2023-04-15T23:02:59.104Z,102048.88
2023-04-15T23:05:25.753Z,102048.56
2023-04-15T23:07:52.307Z,102051.28
2023-04-15T23:10:18.757Z,102058.91
2023-04-15T23:12:45.125Z,102056.28
2023-04-15T23:15:11.771Z,102040.81
2023-04-15T23:17:38.435Z,102050.84
2023-04-15T23:20:05.670Z,102054.41
2023-04-15T23:22:32.098Z,102057.03
2023-04-15T23:24:58.508Z,102057.88
2023-04-15T23:27:24.947Z,102059.31
2023-04-15T23:29:51.401Z,102067.19
2023-04-15T23:32:17.901Z,102068.13
2023-04-15T23:34:44.376Z,102060.16
2023-04-15T23:37:11.373Z,102066.47
2023-04-15T23:39:37.862Z,102067.41
2023-04-15T23:42:04.327Z,102068.38
2023-04-15T23:44:30.722Z,102062.94
2023-04-15T23:46:57.418Z,102066.41
2023-04-15T23:49:23.951Z,102070.38
2023-04-15T23:51:51.064Z,102072.38
2023-04-15T23:54:17.606Z,102065.88
2023-04-15T23:56:44.006Z,102067.22
2023-04-15T23:59:10.702Z,102073.53
